createdAt,value
2018-12-23T00:00:22.891Z,42.63
2018-12-23T00:02:50.962Z,44.80
2018-12-23T00:05:19.519Z,40.60
2018-12-23T00:07:47.540Z,47.20
2018-12-23T00:10:15.587Z,49.20
2018-12-23T00:12:43.890Z,50.33
2018-12-23T00:15:11.934Z,53.67
2018-12-23T00:17:43.712Z,48.77
2018-12-23T00:20:11.789Z,52.77
2018-12-23T00:22:39.829Z,49.63
2018-12-23T00:25:14.068Z,49.93
2018-12-23T00:27:42.338Z,56.43
2018-12-23T00:30:10.261Z,60.13
2018-12-23T00:32:38.284Z,53.80
2018-12-23T00:35:06.537Z,58.07
2018-12-23T00:37:34.806Z,55.70
2018-12-23T00:40:03.511Z,54.20
2018-12-23T00:42:31.355Z,53.50
2018-12-23T00:44:59.224Z,53.93
2018-12-23T00:47:27.516Z,59.57
2018-12-23T00:49:55.567Z,61.17
2018-12-23T00:52:23.432Z,56.17
2018-12-23T00:54:51.739Z,61.43
2018-12-23T00:57:19.806Z,54.50
2018-12-23T00:59:48.319Z,58.47
2018-12-23T01:02:16.252Z,51.83
2018-12-23T01:04:44.519Z,58.63
2018-12-23T01:07:12.796Z,59.13
2018-12-23T01:09:41.093Z,57.77
2018-12-23T01:12:08.931Z,58.23
2018-12-23T01:14:37.171Z,60.20
2018-12-23T01:17:05.499Z,56.47
2018-12-23T01:19:33.343Z,54.83
2018-12-23T01:22:01.328Z,55.00
2018-12-23T01:24:30.260Z,55.07
2018-12-23T01:26:58.490Z,61.07
2018-12-23T01:29:26.333Z,59.80
2018-12-23T01:31:54.217Z,53.23
2018-12-23T01:34:22.494Z,47.90
2018-12-23T01:36:50.958Z,50.67
2018-12-23T01:39:19.259Z,50.27
2018-12-23T01:41:47.301Z,54.90
2018-12-23T01:44:19.276Z,47.40
2018-12-23T01:46:47.540Z,47.77
2018-12-23T01:49:16.433Z,50.70
2018-12-23T01:51:44.909Z,49.67
2018-12-23T01:54:13.195Z,50.23
2018-12-23T01:56:41.666Z,48.80
2018-12-23T01:59:10.146Z,48.73
2018-12-23T02:01:38.229Z,46.43
2018-12-23T02:04:15.724Z,41.90
2018-12-23T02:06:43.881Z,48.03
2018-12-23T02:09:11.746Z,47.07
2018-12-23T02:11:39.883Z,42.40
2018-12-23T02:14:08.131Z,46.40
2018-12-23T02:16:36.651Z,45.83
2018-12-23T02:19:04.703Z,42.67
2018-12-23T02:21:32.728Z,43.60
2018-12-23T02:24:01.119Z,39.90
2018-12-23T02:26:29.268Z,46.00
2018-12-23T02:28:57.554Z,48.47
2018-12-23T02:31:26.060Z,45.13
2018-12-23T02:33:54.091Z,48.77
2018-12-23T02:36:22.366Z,47.03
2018-12-23T02:42:29.472Z,49.13
2018-12-23T02:44:57.357Z,51.40
2018-12-23T02:47:25.183Z,49.23
2018-12-23T02:49:53.105Z,45.70
2018-12-23T02:52:24.833Z,44.53
2018-12-23T02:54:52.802Z,54.70
2018-12-23T02:57:20.825Z,51.80
2018-12-23T02:59:49.139Z,46.20
2018-12-23T03:02:17.431Z,50.93
2018-12-23T03:04:45.280Z,48.03
2018-12-23T03:07:13.370Z,47.90
2018-12-23T03:09:41.269Z,47.40
2018-12-23T03:12:09.511Z,57.47
2018-12-23T03:14:37.732Z,46.63
2018-12-23T03:17:05.633Z,46.00
2018-12-23T03:19:33.432Z,53.17
2018-12-23T03:22:01.391Z,47.93
2018-12-23T03:24:29.466Z,48.57
2018-12-23T03:26:57.523Z,47.67
2018-12-23T03:29:25.918Z,47.03
2018-12-23T03:31:53.878Z,50.90
2018-12-23T03:34:22.230Z,47.47
2018-12-23T03:36:50.504Z,47.37
2018-12-23T03:39:18.472Z,46.00
2018-12-23T03:41:46.747Z,42.27
2018-12-23T03:44:15.255Z,44.60
2018-12-23T03:46:43.504Z,46.73
2018-12-23T03:49:11.591Z,40.27
2018-12-23T03:51:39.506Z,36.57
2018-12-23T03:54:07.312Z,40.70
2018-12-23T03:56:35.392Z,46.97
2018-12-23T03:59:03.241Z,54.93
2018-12-23T04:01:31.107Z,47.83
2018-12-23T04:03:59.364Z,48.13
2018-12-23T04:06:27.272Z,50.10
2018-12-23T04:08:55.485Z,47.97
2018-12-23T04:11:23.365Z,49.33
2018-12-23T04:13:51.664Z,45.93
2018-12-23T04:16:19.533Z,50.40
2018-12-23T04:18:47.397Z,44.77
2018-12-23T04:21:15.189Z,54.90
2018-12-23T04:23:43.726Z,48.57
2018-12-23T04:26:11.609Z,44.13
2018-12-23T04:28:39.473Z,54.40
2018-12-23T04:31:07.451Z,54.07
2018-12-23T04:33:35.652Z,47.77
2018-12-23T04:36:03.510Z,45.57
2018-12-23T04:38:31.758Z,43.13
2018-12-23T04:40:59.793Z,41.70
2018-12-23T04:43:28.207Z,48.80
2018-12-23T04:45:56.378Z,50.03
2018-12-23T04:48:24.449Z,40.57
2018-12-23T04:50:52.532Z,43.77
2018-12-23T04:53:25.711Z,48.00
2018-12-23T04:55:53.576Z,42.17
2018-12-23T04:58:21.457Z,41.60
2018-12-23T05:00:50.435Z,38.90
2018-12-23T05:03:19.324Z,45.13
2018-12-23T05:05:47.134Z,37.80
2018-12-23T05:08:15.591Z,41.37
2018-12-23T05:10:43.436Z,38.30
2018-12-23T05:13:11.301Z,36.50
2018-12-23T05:15:39.129Z,41.57
2018-12-23T05:18:07.239Z,31.73
2018-12-23T05:20:35.101Z,38.47
2018-12-23T05:23:02.966Z,40.50
2018-12-23T05:25:30.854Z,26.13
2018-12-23T05:27:59.530Z,20.37
2018-12-23T05:30:27.398Z,21.33
2018-12-23T05:32:55.658Z,23.63
2018-12-23T05:35:23.626Z,28.83
2018-12-23T05:37:51.413Z,29.53
2018-12-23T05:40:19.358Z,31.17
2018-12-23T05:42:47.224Z,38.43
2018-12-23T05:45:15.089Z,34.63
2018-12-23T05:47:43.365Z,36.90
2018-12-23T05:50:11.230Z,38.33
2018-12-23T05:52:39.083Z,37.97
2018-12-23T05:55:07.401Z,41.10
2018-12-23T05:57:35.249Z,36.63
2018-12-23T06:00:03.103Z,39.90
2018-12-23T06:02:33.449Z,40.67
2018-12-23T06:05:02.333Z,43.17
2018-12-23T06:07:30.183Z,43.17
2018-12-23T06:10:01.734Z,39.20
2018-12-23T06:12:29.600Z,39.87
2018-12-23T06:14:57.469Z,33.53
2018-12-23T06:17:25.357Z,32.27
2018-12-23T06:19:53.627Z,41.67
2018-12-23T06:22:21.521Z,30.27
2018-12-23T06:24:50.125Z,35.93
2018-12-23T06:27:18.497Z,40.53
2018-12-23T06:29:46.507Z,38.07
2018-12-23T06:32:14.387Z,30.80
2018-12-23T06:34:42.439Z,38.13
2018-12-23T06:37:10.525Z,37.23
2018-12-23T06:39:38.479Z,28.13
2018-12-23T06:42:06.753Z,29.13
2018-12-23T06:44:34.823Z,30.13
2018-12-23T06:47:03.117Z,29.13
2018-12-23T06:49:30.987Z,22.90
2018-12-23T06:51:58.831Z,24.40
2018-12-23T06:54:30.405Z,30.97
2018-12-23T06:56:58.247Z,32.23
2018-12-23T06:59:26.089Z,25.80
2018-12-23T07:01:53.979Z,30.93
2018-12-23T07:04:22.014Z,29.90
2018-12-23T07:06:49.934Z,29.37
2018-12-23T07:09:18.116Z,29.17
2018-12-23T07:11:45.977Z,31.73
2018-12-23T07:14:14.027Z,28.17
2018-12-23T07:16:41.807Z,29.70
2018-12-23T07:19:09.757Z,35.63
2018-12-23T07:21:37.917Z,28.63
2018-12-23T07:24:06.307Z,23.03
2018-12-23T07:26:34.481Z,25.50
2018-12-23T07:29:02.363Z,28.47
2018-12-23T07:31:30.212Z,35.30
2018-12-23T07:33:58.093Z,33.23
2018-12-23T07:36:29.806Z,27.17
2018-12-23T07:38:57.708Z,25.70
2018-12-23T07:41:25.576Z,33.40
2018-12-23T07:43:53.402Z,32.50
2018-12-23T07:46:21.382Z,28.20
2018-12-23T07:48:49.369Z,33.00
2018-12-23T07:51:17.413Z,27.53
2018-12-23T07:53:45.304Z,35.03
2018-12-23T07:56:13.374Z,27.37
2018-12-23T07:58:41.243Z,28.90
2018-12-23T08:01:09.031Z,25.93
2018-12-23T08:03:37.368Z,30.07
2018-12-23T08:06:05.350Z,27.20
2018-12-23T08:08:33.222Z,29.57
2018-12-23T08:11:01.114Z,33.33
2018-12-23T08:13:29.175Z,33.27
2018-12-23T08:15:57.050Z,27.73
2018-12-23T08:18:25.099Z,27.17
2018-12-23T08:20:54.388Z,26.80
2018-12-23T08:23:22.255Z,27.70
2018-12-23T08:25:50.131Z,28.13
2018-12-23T08:28:18.001Z,30.13
2018-12-23T08:30:46.024Z,30.37
2018-12-23T08:33:14.112Z,35.97
2018-12-23T08:35:42.097Z,32.03
2018-12-23T08:38:09.906Z,32.70
2018-12-23T08:40:37.942Z,24.80
2018-12-23T08:43:05.738Z,28.80
2018-12-23T08:45:33.553Z,34.33
2018-12-23T08:48:01.385Z,31.53
2018-12-23T08:50:29.804Z,32.40
2018-12-23T08:52:57.617Z,29.47
2018-12-23T08:55:25.534Z,29.07
2018-12-23T08:57:53.321Z,32.33
2018-12-23T09:00:21.117Z,35.67
2018-12-23T09:02:48.912Z,25.07
2018-12-23T09:05:16.715Z,24.87
2018-12-23T09:07:52.814Z,23.47
2018-12-23T09:10:14.903Z,27.63
2018-12-23T09:12:42.723Z,22.20
2018-12-23T09:15:10.714Z,38.73
2018-12-23T09:17:39.627Z,32.50
2018-12-23T09:20:07.436Z,26.63
2018-12-23T09:22:35.255Z,22.80
2018-12-23T09:25:03.642Z,28.43
2018-12-23T09:27:31.443Z,24.93
2018-12-23T09:30:01.365Z,27.37
2018-12-23T09:32:29.255Z,25.20
2018-12-23T09:34:57.398Z,28.17
2018-12-23T09:37:25.197Z,22.57
2018-12-23T09:39:53.106Z,28.77
2018-12-23T09:42:21.109Z,20.33
2018-12-23T09:44:48.983Z,27.67
2018-12-23T09:47:16.931Z,27.53
2018-12-23T09:49:44.742Z,26.97
2018-12-23T09:52:13.104Z,32.23
2018-12-23T09:54:41.370Z,31.33
2018-12-23T09:57:09.452Z,29.20
2018-12-23T09:59:37.331Z,29.27
2018-12-23T10:02:05.813Z,27.00
2018-12-23T10:04:33.650Z,27.67
2018-12-23T10:07:02.456Z,33.70
2018-12-23T10:09:30.335Z,28.23
2018-12-23T10:11:58.283Z,38.10
2018-12-23T10:14:26.567Z,31.10
2018-12-23T10:16:54.360Z,28.93
2018-12-23T10:19:22.205Z,33.53
2018-12-23T10:21:50.267Z,25.27
2018-12-23T10:24:18.050Z,28.13
2018-12-23T10:26:46.779Z,29.47
2018-12-23T10:29:15.050Z,26.23
2018-12-23T10:31:43.023Z,30.97
2018-12-23T10:34:11.417Z,27.77
2018-12-23T10:36:39.784Z,21.83
2018-12-23T10:39:07.882Z,29.60
2018-12-23T10:41:35.745Z,26.73
2018-12-23T10:44:03.826Z,29.80
2018-12-23T10:46:31.626Z,30.03
2018-12-23T10:48:59.548Z,29.00
2018-12-23T10:51:28.135Z,26.20
2018-12-23T10:53:56.202Z,27.30
2018-12-23T10:56:24.272Z,26.97
2018-12-23T10:58:52.137Z,29.77
2018-12-23T11:01:20.255Z,32.00
2018-12-23T11:03:48.281Z,32.27
2018-12-23T11:06:16.145Z,29.70
2018-12-23T11:08:43.973Z,24.30
2018-12-23T11:11:12.168Z,25.83
2018-12-23T11:13:40.664Z,27.47
2018-12-23T11:16:08.505Z,27.70
2018-12-23T11:18:36.361Z,25.60
2018-12-23T11:21:04.360Z,26.73
2018-12-23T11:23:32.677Z,27.20
2018-12-23T11:26:00.478Z,18.70
2018-12-23T11:28:28.864Z,30.20
2018-12-23T11:30:56.821Z,25.77
2018-12-23T11:33:24.729Z,25.47
2018-12-23T11:35:52.993Z,26.77
2018-12-23T11:38:20.795Z,28.47
2018-12-23T11:40:48.622Z,21.33
2018-12-23T11:43:16.753Z,20.97
2018-12-23T11:45:44.660Z,24.63
2018-12-23T11:48:12.454Z,22.23
2018-12-23T11:50:40.497Z,24.13
2018-12-23T11:53:09.093Z,24.37
2018-12-23T11:55:36.944Z,26.87
2018-12-23T11:58:04.953Z,25.43
2018-12-23T12:00:32.879Z,24.23
2018-12-23T12:03:00.662Z,22.90
2018-12-23T12:05:28.450Z,17.80
2018-12-23T12:07:56.680Z,19.53
2018-12-23T12:10:24.461Z,19.37
2018-12-23T12:12:52.255Z,19.63
2018-12-23T12:15:20.492Z,18.03
2018-12-23T12:17:48.389Z,23.57
2018-12-23T12:20:16.315Z,25.83
2018-12-23T12:22:44.797Z,22.50
2018-12-23T12:25:12.673Z,27.53
2018-12-23T12:27:40.528Z,23.50
2018-12-23T12:30:09.749Z,20.83
2018-12-23T12:32:37.553Z,24.60
2018-12-23T12:35:05.357Z,22.03
2018-12-23T12:37:34.352Z,28.17
2018-12-23T12:40:02.191Z,25.70
2018-12-23T12:42:30.286Z,28.40
2018-12-23T12:44:58.073Z,21.33
2018-12-23T12:47:25.933Z,22.90
2018-12-23T12:49:53.989Z,24.37
2018-12-23T12:52:22.897Z,23.50
2018-12-23T12:54:51.045Z,23.97
2018-12-23T12:57:18.914Z,24.63
2018-12-23T12:59:46.775Z,27.73
2018-12-23T13:02:15.176Z,27.37
2018-12-23T13:04:42.974Z,27.73
2018-12-23T13:07:11.607Z,24.57
2018-12-23T13:09:40.100Z,26.93
2018-12-23T13:12:07.905Z,17.13
2018-12-23T13:14:36.433Z,21.90
2018-12-23T13:17:04.566Z,20.80
2018-12-23T13:19:35.958Z,14.67
2018-12-23T13:22:06.687Z,22.40
2018-12-23T13:24:34.758Z,16.47
2018-12-23T13:27:02.624Z,21.37
2018-12-23T13:29:56.329Z,24.90
2018-12-23T13:32:24.365Z,19.70
2018-12-23T13:34:52.150Z,23.10
2018-12-23T13:37:20.010Z,21.03
2018-12-23T13:39:47.958Z,19.37
2018-12-23T13:42:20.641Z,27.93
2018-12-23T13:44:57.823Z,23.73
2018-12-23T13:47:39.414Z,29.73
2018-12-23T13:50:16.598Z,20.53
2018-12-23T13:52:52.446Z,23.37
2018-12-23T13:55:36.900Z,22.53
2018-12-23T14:02:37.863Z,24.27
2018-12-23T14:05:45.819Z,16.50
2018-12-23T14:08:53.831Z,16.77
2018-12-23T14:12:01.775Z,16.37
2018-12-23T14:43:07.444Z,20.43
2018-12-23T14:45:59.576Z,22.47
2018-12-23T14:58:13.570Z,25.17
2018-12-23T15:01:23.113Z,22.93
2018-12-23T15:04:07.555Z,28.00
2018-12-23T15:07:15.718Z,26.43
2018-12-23T15:10:38.683Z,26.83
2018-12-23T15:13:36.619Z,29.73
2018-12-23T15:19:43.483Z,27.53
2018-12-23T15:35:39.272Z,38.70
2018-12-23T15:38:54.677Z,36.20
2018-12-23T15:41:46.736Z,32.17
2018-12-23T15:51:02.738Z,32.30
2018-12-23T16:03:17.603Z,37.57
2018-12-23T16:05:59.830Z,33.87
2018-12-23T16:09:08.152Z,35.43
2018-12-23T16:18:35.769Z,32.10
2018-12-23T16:27:41.355Z,31.47
2018-12-23T16:30:51.155Z,28.87
2018-12-23T16:33:59.691Z,29.43
2018-12-23T16:40:08.317Z,29.47
2018-12-23T16:43:00.347Z,32.13
2018-12-23T16:48:57.810Z,23.87
2018-12-23T16:57:36.470Z,27.53
2018-12-23T17:09:25.889Z,30.57
2018-12-23T17:18:50.695Z,24.73
2018-12-23T17:22:00.551Z,31.60
2018-12-23T17:28:07.905Z,30.23
2018-12-23T17:34:16.637Z,33.70
2018-12-23T17:37:27.777Z,38.73
2018-12-23T17:40:36.732Z,32.97
2018-12-23T17:43:09.150Z,19.43
2018-12-23T17:49:05.084Z,17.13
2018-12-23T17:55:00.413Z,12.17
2018-12-23T17:58:08.871Z,12.63
2018-12-23T18:00:58.393Z,9.97
2018-12-23T18:04:06.602Z,9.17
2018-12-23T18:07:17.508Z,9.93
2018-12-23T18:10:27.503Z,9.43
2018-12-23T18:16:34.354Z,12.83
2018-12-23T18:22:50.021Z,14.83
2018-12-23T18:37:38.762Z,12.43
2018-12-23T18:44:11.789Z,12.93
2018-12-23T18:47:21.729Z,14.53
2018-12-23T18:57:39.020Z,17.23
2018-12-23T19:00:32.599Z,12.80
2018-12-23T19:06:41.114Z,10.40
2018-12-23T19:10:06.130Z,16.13
2018-12-23T19:13:01.911Z,9.97
2018-12-23T19:16:30.288Z,14.83
2018-12-23T19:19:23.728Z,14.70
2018-12-23T19:22:33.425Z,14.47
2018-12-23T19:25:44.690Z,8.03
2018-12-23T19:28:54.263Z,12.07
2018-12-23T19:32:02.421Z,18.97
2018-12-23T19:35:28.149Z,15.80
2018-12-23T19:41:49.790Z,12.43
2018-12-23T19:45:13.480Z,15.03
2018-12-23T19:48:09.301Z,16.57
2018-12-23T19:51:19.078Z,17.00
2018-12-23T19:54:41.681Z,16.23
2018-12-23T19:57:37.456Z,15.27
2018-12-23T20:00:46.914Z,13.83
2018-12-23T20:03:56.331Z,13.77
2018-12-23T20:07:18.866Z,20.13
2018-12-23T20:10:14.486Z,17.83
2018-12-23T20:13:38.875Z,16.53
2018-12-23T20:16:28.181Z,15.20
2018-12-23T20:19:55.172Z,19.57
2018-12-23T20:22:47.402Z,18.50
2018-12-23T20:25:57.094Z,17.63
2018-12-23T20:29:05.308Z,18.57
2018-12-23T20:36:01.807Z,18.67
2018-12-23T20:46:39.694Z,20.33
2018-12-23T20:49:31.657Z,24.13
2018-12-23T20:52:40.035Z,22.87
2018-12-23T20:55:49.617Z,24.77
2018-12-23T20:58:57.943Z,27.70
2018-12-23T21:02:06.071Z,30.67
2018-12-23T21:05:26.339Z,35.20
2018-12-23T21:08:42.818Z,32.43
2018-12-23T21:11:36.646Z,35.97
2018-12-23T21:15:00.183Z,36.63
2018-12-23T21:17:31.708Z,38.33
2018-12-23T21:20:40.080Z,37.83
2018-12-23T21:24:00.245Z,39.03
2018-12-23T21:26:58.203Z,37.53
2018-12-23T21:30:06.631Z,42.03
2018-12-23T21:33:29.488Z,41.07
2018-12-23T21:36:27.634Z,42.27
2018-12-23T21:39:37.196Z,42.13
2018-12-23T21:42:45.520Z,35.17
2018-12-23T21:46:13.898Z,42.40
2018-12-23T21:49:18.334Z,50.93
2018-12-23T21:52:30.005Z,39.27
2018-12-23T21:55:25.857Z,38.10
2018-12-23T21:58:50.224Z,44.30
2018-12-23T22:01:50.666Z,43.80
2018-12-23T22:05:16.693Z,32.90
2018-12-23T22:08:42.635Z,38.47
2018-12-23T22:11:36.388Z,31.80
2018-12-23T22:17:43.471Z,28.17
2018-12-23T22:20:27.761Z,33.97
2018-12-23T22:23:53.828Z,29.00
2018-12-23T23:31:46.817Z,19.63
